createdAt,value
2023-04-18T00:01:40.477Z,94.34
2023-04-18T00:04:10.506Z,93.29
2023-04-18T00:06:38.548Z,93.64
2023-04-18T00:09:06.632Z,93.43
2023-04-18T00:11:34.559Z,93.34
2023-04-18T00:14:03.264Z,93.12
2023-04-18T00:16:33.081Z,92.90
2023-04-18T00:19:02.202Z,92.82
2023-04-18T00:21:30.129Z,93.25
2023-04-18T00:23:57.960Z,93.43
2023-04-18T00:26:25.801Z,94.81
2023-04-18T00:28:54.521Z,93.65
2023-04-18T00:31:22.302Z,93.89
2023-04-18T00:33:53.109Z,94.03
2023-04-18T00:36:20.863Z,94.03
2023-04-18T00:38:48.636Z,93.52
2023-04-18T00:41:16.774Z,93.78
2023-04-18T00:43:44.559Z,93.37
2023-04-18T00:46:12.571Z,92.66
2023-04-18T00:48:40.718Z,89.67
2023-04-18T00:51:10.900Z,92.08
2023-04-18T00:53:38.937Z,92.41
2023-04-18T00:56:07.478Z,91.86
2023-04-18T00:58:35.887Z,89.62
2023-04-18T01:01:03.943Z,90.86
2023-04-18T01:03:32.995Z,92.09
2023-04-18T01:06:01.151Z,91.36
2023-04-18T01:08:30.606Z,91.49
2023-04-18T01:10:59.600Z,92.12
2023-04-18T01:13:27.510Z,90.61
2023-04-18T01:15:55.739Z,89.02
2023-04-18T01:18:24.343Z,87.66
2023-04-18T01:20:53.350Z,86.76
2023-04-18T01:23:21.954Z,86.39
2023-04-18T01:25:51.047Z,83.79
2023-04-18T01:28:21.228Z,82.01
2023-04-18T01:30:49.683Z,81.86
2023-04-18T01:33:17.500Z,82.90
2023-04-18T01:35:48.226Z,83.25
2023-04-18T01:38:15.948Z,81.49
2023-04-18T01:40:43.914Z,80.76
2023-04-18T01:43:13.092Z,82.25
2023-04-18T01:45:40.909Z,81.85
2023-04-18T01:48:10.079Z,82.72
2023-04-18T01:50:37.807Z,81.25
2023-04-18T01:53:05.601Z,80.47
2023-04-18T01:55:33.300Z,80.53
2023-04-18T01:58:01.105Z,82.40
2023-04-18T02:00:30.280Z,80.46
2023-04-18T02:02:59.553Z,80.02
2023-04-18T02:05:28.061Z,81.22
2023-04-18T02:07:55.941Z,81.65
2023-04-18T02:10:23.895Z,81.14
2023-04-18T02:12:51.666Z,81.75
2023-04-18T02:15:19.862Z,82.15
2023-04-18T02:17:50.527Z,81.23
2023-04-18T02:20:18.272Z,82.32
2023-04-18T02:22:47.776Z,83.69
2023-04-18T02:25:15.545Z,82.77
2023-04-18T02:27:43.386Z,84.59
2023-04-18T02:30:11.700Z,83.68
2023-04-18T02:32:39.623Z,85.19
2023-04-18T02:35:09.463Z,87.08
2023-04-18T02:37:37.238Z,88.55
2023-04-18T02:40:05.864Z,88.18
2023-04-18T02:42:33.624Z,85.32
2023-04-18T02:45:02.625Z,86.21
2023-04-18T02:47:35.409Z,88.39
2023-04-18T02:50:13.085Z,88.77
2023-04-18T02:52:40.940Z,88.23
2023-04-18T02:55:10.588Z,90.26
2023-04-18T02:57:41.916Z,87.88
2023-04-18T03:00:38.814Z,86.97
2023-04-18T03:03:06.698Z,87.56
2023-04-18T03:05:55.765Z,90.13
2023-04-18T03:08:23.875Z,90.45
2023-04-18T03:10:51.747Z,90.11
2023-04-18T03:13:23.286Z,91.42
2023-04-18T03:15:52.075Z,91.48
2023-04-18T03:18:19.936Z,92.65
2023-04-18T03:20:48.076Z,93.00
2023-04-18T03:23:19.071Z,92.21
2023-04-18T03:25:47.329Z,93.63
2023-04-18T03:28:15.147Z,92.63
2023-04-18T03:30:43.108Z,94.01
2023-04-18T03:33:11.979Z,94.14
2023-04-18T03:35:40.202Z,94.61
2023-04-18T03:38:08.440Z,95.65
2023-04-18T03:40:42.106Z,96.75
2023-04-18T03:43:16.802Z,95.38
2023-04-18T03:45:47.238Z,95.68
2023-04-18T03:48:16.982Z,96.09
2023-04-18T03:50:46.783Z,94.79
2023-04-18T03:53:15.022Z,95.11
2023-04-18T03:55:44.627Z,95.17
2023-04-18T03:58:15.346Z,95.13
2023-04-18T04:00:43.417Z,96.08
2023-04-18T04:03:12.467Z,95.58
2023-04-18T04:05:41.276Z,95.16
2023-04-18T04:08:09.067Z,93.51
2023-04-18T04:10:37.031Z,94.44
2023-04-18T04:13:06.618Z,94.18
2023-04-18T04:15:38.475Z,94.78
2023-04-18T04:18:08.978Z,96.52
2023-04-18T04:20:39.984Z,95.81
2023-04-18T04:23:13.272Z,97.94
2023-04-18T04:25:42.400Z,98.08
2023-04-18T04:28:22.684Z,98.82
2023-04-18T04:30:56.583Z,97.81
2023-04-18T04:33:28.382Z,97.48
2023-04-18T04:36:01.217Z,97.68
2023-04-18T04:38:31.387Z,97.38
2023-04-18T04:40:59.792Z,98.98
2023-04-18T04:43:29.652Z,99.75
2023-04-18T04:45:58.365Z,99.55
2023-04-18T04:48:26.951Z,100.00
2023-04-18T04:50:57.866Z,98.23
2023-04-18T04:53:27.946Z,98.07
2023-04-18T04:55:56.090Z,97.30
2023-04-18T04:58:24.283Z,97.85
2023-04-18T05:01:07.521Z,96.40
2023-04-18T05:03:36.465Z,98.22
2023-04-18T05:06:05.821Z,97.21
2023-04-18T05:08:33.905Z,97.59
2023-04-18T05:11:02.402Z,98.02
2023-04-18T05:13:30.152Z,98.11
2023-04-18T05:15:59.282Z,99.17
2023-04-18T05:18:28.539Z,98.73
2023-04-18T05:20:56.905Z,98.82
2023-04-18T05:23:24.804Z,96.74
2023-04-18T05:25:53.282Z,96.11
2023-04-18T05:28:21.136Z,97.42
2023-04-18T05:30:48.948Z,96.44
2023-04-18T05:33:16.803Z,96.05
2023-04-18T05:35:45.904Z,95.48
2023-04-18T05:38:13.734Z,95.72
2023-04-18T05:40:42.398Z,95.43
2023-04-18T05:43:10.176Z,94.64
2023-04-18T05:45:38.103Z,93.41
2023-04-18T05:48:06.076Z,92.90
2023-04-18T05:50:33.884Z,94.28
2023-04-18T05:53:03.032Z,92.54
2023-04-18T05:55:30.840Z,92.08
2023-04-18T05:57:58.620Z,91.31
2023-04-18T06:00:26.398Z,91.09
2023-04-18T06:02:54.207Z,91.48
2023-04-18T06:05:22.730Z,89.92
2023-04-18T06:07:50.791Z,90.66
2023-04-18T06:10:20.164Z,89.81
2023-04-18T06:12:47.892Z,88.35
2023-04-18T06:15:15.649Z,88.47
2023-04-18T06:17:44.578Z,90.33
2023-04-18T06:20:12.716Z,88.99
2023-04-18T06:22:40.418Z,86.47
2023-04-18T06:25:09.944Z,87.33
2023-04-18T06:27:39.402Z,87.17
2023-04-18T06:30:08.173Z,87.48
2023-04-18T06:32:35.973Z,87.85
2023-04-18T06:35:03.977Z,88.57
2023-04-18T06:37:31.768Z,87.49
2023-04-18T06:39:59.607Z,86.22
2023-04-18T06:42:27.315Z,85.46
2023-04-18T06:44:57.272Z,85.78
2023-04-18T06:47:25.188Z,84.43
2023-04-18T06:49:52.953Z,85.76
2023-04-18T06:52:20.638Z,83.56
2023-04-18T06:54:48.384Z,82.72
2023-04-18T06:57:16.923Z,82.66
2023-04-18T06:59:44.647Z,83.73
2023-04-18T07:02:14.032Z,83.87
2023-04-18T07:04:41.918Z,84.42
2023-04-18T07:07:09.823Z,85.65
2023-04-18T07:09:37.592Z,84.98
2023-04-18T07:12:05.534Z,82.73
2023-04-18T07:14:34.302Z,83.58
2023-04-18T07:17:02.709Z,84.53
2023-04-18T07:19:31.859Z,84.17
2023-04-18T07:21:59.603Z,82.26
2023-04-18T07:24:27.412Z,83.03
2023-04-18T07:26:55.317Z,83.58
2023-04-18T07:29:23.244Z,82.78
2023-04-18T07:31:51.218Z,81.13
2023-04-18T07:34:19.056Z,82.37
2023-04-18T07:36:48.173Z,83.28
2023-04-18T07:39:15.889Z,83.73
2023-04-18T07:41:43.630Z,85.06
2023-04-18T07:44:11.635Z,84.75
2023-04-18T07:46:39.596Z,82.92
2023-04-18T07:49:07.446Z,81.86
2023-04-18T07:51:35.298Z,83.49
2023-04-18T07:54:04.340Z,82.20
2023-04-18T07:56:32.068Z,80.38
2023-04-18T07:58:59.759Z,80.46
2023-04-18T08:01:27.660Z,79.98
2023-04-18T08:03:57.729Z,81.36
2023-04-18T08:06:26.196Z,80.60
2023-04-18T08:08:54.075Z,79.03
2023-04-18T08:11:23.341Z,80.13
2023-04-18T08:13:51.153Z,78.82
2023-04-18T08:16:18.950Z,79.81
2023-04-18T08:18:46.707Z,79.36
2023-04-18T08:21:14.518Z,79.11
2023-04-18T08:23:42.242Z,77.08
2023-04-18T08:26:10.168Z,78.31
2023-04-18T08:28:39.331Z,79.17
2023-04-18T08:31:07.141Z,78.19
2023-04-18T08:33:35.022Z,76.55
2023-04-18T08:36:03.212Z,75.43
2023-04-18T08:38:31.110Z,76.64
2023-04-18T08:40:58.834Z,76.30
2023-04-18T08:43:26.816Z,77.55
2023-04-18T08:46:00.277Z,77.40
2023-04-18T08:48:28.851Z,76.35
2023-04-18T08:50:58.736Z,76.13
2023-04-18T08:53:27.543Z,75.98
2023-04-18T08:55:56.414Z,75.89
2023-04-18T08:58:27.004Z,74.04
2023-04-18T09:00:56.299Z,75.67
2023-04-18T09:03:40.875Z,76.25
2023-04-18T09:06:18.576Z,78.60
2023-04-18T09:08:58.746Z,76.31
2023-04-18T09:11:28.987Z,76.66
2023-04-18T09:13:58.718Z,77.34
2023-04-18T09:16:29.237Z,77.08
2023-04-18T09:19:11.939Z,75.88
2023-04-18T09:21:41.463Z,75.31
2023-04-18T09:24:23.554Z,73.55
2023-04-18T09:26:53.769Z,74.29
2023-04-18T09:29:23.369Z,74.32
2023-04-18T09:32:03.124Z,75.36
2023-04-18T09:34:34.013Z,75.05
2023-04-18T09:37:10.373Z,74.00
2023-04-18T09:39:39.495Z,74.38
2023-04-18T09:42:08.098Z,74.31
2023-04-18T09:44:35.897Z,73.46
2023-04-18T09:47:07.827Z,73.38
2023-04-18T09:49:35.720Z,72.42
2023-04-18T09:52:07.390Z,72.68
2023-04-18T09:54:39.495Z,72.67
2023-04-18T09:57:13.622Z,73.62
2023-04-18T09:59:47.717Z,73.46
2023-04-18T10:02:23.621Z,73.50
2023-04-18T10:04:52.493Z,73.79
2023-04-18T10:07:21.839Z,73.69
2023-04-18T10:09:50.453Z,74.19
2023-04-18T10:12:19.022Z,75.00
2023-04-18T10:14:47.293Z,73.64
2023-04-18T10:17:17.146Z,71.17
2023-04-18T10:19:46.767Z,71.45
2023-04-18T10:22:14.553Z,70.65
2023-04-18T10:24:50.203Z,67.76
2023-04-18T10:27:18.638Z,68.80
2023-04-18T10:29:51.176Z,66.78
2023-04-18T10:32:24.401Z,67.56
2023-04-18T10:34:54.630Z,62.61
2023-04-18T10:37:22.455Z,63.01
2023-04-18T10:39:52.050Z,63.30
2023-04-18T10:42:19.848Z,62.06
2023-04-18T10:45:20.941Z,64.37
2023-04-18T10:47:50.930Z,64.50
2023-04-18T10:50:18.876Z,64.41
2023-04-18T10:52:46.739Z,65.09
2023-04-18T10:55:18.328Z,66.47
2023-04-18T10:57:47.862Z,66.60
2023-04-18T11:00:18.228Z,68.43
2023-04-18T11:02:52.932Z,70.77
2023-04-18T11:05:23.294Z,70.06
2023-04-18T11:07:51.234Z,69.16
2023-04-18T11:10:20.771Z,69.48
2023-04-18T11:12:48.793Z,68.81
2023-04-18T11:15:21.232Z,69.13
2023-04-18T11:18:01.488Z,68.41
2023-04-18T11:20:30.156Z,66.34
2023-04-18T11:22:59.540Z,67.37
2023-04-18T11:25:29.495Z,66.62
2023-04-18T11:28:00.450Z,68.12
2023-04-18T11:30:28.994Z,68.67
2023-04-18T11:32:58.115Z,68.88
2023-04-18T11:35:25.961Z,67.49
2023-04-18T11:37:56.067Z,69.73
2023-04-18T11:40:24.240Z,69.46
2023-04-18T11:42:51.976Z,70.20
2023-04-18T11:45:19.740Z,70.14
2023-04-18T11:47:47.551Z,69.11
2023-04-18T11:50:16.739Z,69.87
2023-04-18T11:52:50.223Z,68.70
2023-04-18T11:55:21.370Z,67.40
2023-04-18T11:57:54.095Z,67.66
2023-04-18T12:00:35.006Z,68.42
2023-04-18T12:03:05.291Z,68.13
2023-04-18T12:05:36.929Z,65.23
2023-04-18T12:08:09.421Z,65.00
2023-04-18T12:10:37.464Z,63.98
2023-04-18T12:13:08.753Z,61.61
2023-04-18T12:15:39.753Z,59.12
2023-04-18T12:18:09.281Z,57.19
2023-04-18T12:20:46.448Z,56.67
2023-04-18T12:23:30.448Z,58.33
2023-04-18T12:26:02.483Z,61.84
2023-04-18T12:28:30.791Z,61.20
2023-04-18T12:30:58.955Z,62.89
2023-04-18T12:33:26.899Z,63.09
2023-04-18T12:35:56.037Z,63.01
2023-04-18T12:38:24.656Z,63.08
2023-04-18T12:40:53.080Z,63.55
2023-04-18T12:43:21.183Z,63.61
2023-04-18T12:45:49.048Z,63.84
2023-04-18T12:48:17.003Z,62.85
2023-04-18T12:50:44.854Z,62.16
2023-04-18T12:53:14.111Z,62.10
2023-04-18T12:55:42.017Z,64.29
2023-04-18T12:58:09.748Z,64.69
2023-04-18T13:00:38.086Z,66.14
2023-04-18T13:03:06.072Z,66.08
2023-04-18T13:05:34.506Z,68.04
2023-04-18T13:08:15.328Z,67.20
2023-04-18T13:10:46.112Z,64.97
2023-04-18T13:13:19.837Z,63.50
2023-04-18T13:15:47.694Z,64.84
2023-04-18T13:18:15.676Z,64.93
2023-04-18T13:20:44.018Z,65.38
2023-04-18T13:23:11.765Z,68.52
2023-04-18T13:25:42.761Z,67.62
2023-04-18T13:28:11.904Z,67.25
2023-04-18T13:30:39.891Z,66.98
2023-04-18T13:33:07.883Z,65.70
2023-04-18T13:35:41.570Z,64.60
2023-04-18T13:38:11.029Z,62.94
2023-04-18T13:40:39.206Z,62.76
2023-04-18T13:43:06.892Z,62.21
2023-04-18T13:45:36.255Z,59.82
2023-04-18T13:48:04.327Z,57.53
2023-04-18T13:50:32.129Z,56.82
2023-04-18T13:52:59.836Z,58.24
2023-04-18T13:55:30.752Z,59.10
2023-04-18T13:57:58.619Z,60.29
2023-04-18T14:00:28.448Z,61.10
2023-04-18T14:02:57.722Z,60.79
2023-04-18T14:05:25.831Z,60.80
2023-04-18T14:07:53.594Z,61.44
2023-04-18T14:10:21.684Z,60.50
2023-04-18T14:12:49.491Z,61.38
2023-04-18T14:15:17.711Z,62.24
2023-04-18T14:17:46.063Z,61.48
2023-04-18T14:20:19.152Z,63.41
2023-04-18T14:22:47.008Z,62.79
2023-04-18T14:25:16.993Z,63.62
2023-04-18T14:27:50.186Z,63.18
2023-04-18T14:30:17.975Z,62.47
2023-04-18T14:32:45.783Z,63.23
2023-04-18T14:35:15.065Z,62.18
2023-04-18T14:37:42.867Z,63.72
2023-04-18T14:40:12.269Z,61.77
2023-04-18T14:42:39.978Z,62.46
2023-04-18T14:45:09.053Z,63.26
2023-04-18T14:47:39.038Z,64.51
2023-04-18T14:50:08.268Z,63.85
2023-04-18T14:52:37.489Z,63.82
2023-04-18T14:55:05.852Z,64.23
2023-04-18T14:57:34.609Z,62.86
2023-04-18T15:00:03.987Z,62.45
2023-04-18T15:02:31.903Z,62.13
2023-04-18T15:05:00.232Z,61.75
2023-04-18T15:07:28.203Z,61.00
2023-04-18T15:09:57.518Z,61.67
2023-04-18T15:12:25.357Z,62.06
2023-04-18T15:14:53.887Z,61.91
2023-04-18T15:17:21.909Z,61.41
2023-04-18T15:19:49.633Z,62.09
2023-04-18T15:22:17.422Z,61.39
2023-04-18T15:24:45.144Z,62.35
2023-04-18T15:27:14.270Z,61.53
2023-04-18T15:29:42.025Z,62.00
2023-04-18T15:32:10.251Z,62.33
2023-04-18T15:34:38.086Z,60.48
2023-04-18T15:37:05.953Z,59.87
2023-04-18T15:39:33.695Z,60.49
2023-04-18T15:42:02.318Z,60.13
2023-04-18T15:44:31.794Z,59.01
2023-04-18T15:47:01.130Z,58.23
2023-04-18T15:49:28.859Z,59.11
2023-04-18T15:51:56.859Z,58.83
2023-04-18T15:54:43.017Z,57.55
2023-04-18T15:57:25.571Z,57.32
2023-04-18T16:00:12.336Z,58.57
2023-04-18T16:02:41.693Z,58.73
2023-04-18T16:05:14.132Z,59.15
2023-04-18T16:07:51.557Z,58.28
2023-04-18T16:10:26.287Z,58.02
2023-04-18T16:12:55.732Z,59.20
2023-04-18T16:15:29.134Z,59.69
2023-04-18T16:18:02.943Z,60.09
2023-04-18T16:20:43.720Z,58.60
2023-04-18T16:23:15.162Z,58.53
2023-04-18T16:25:51.530Z,56.65
2023-04-18T16:28:22.673Z,56.15
2023-04-18T16:30:55.613Z,56.52
2023-04-18T16:33:28.115Z,54.69
2023-04-18T16:36:02.922Z,55.53
2023-04-18T16:38:42.162Z,55.29
2023-04-18T16:41:11.298Z,55.45
2023-04-18T16:43:45.230Z,56.74
2023-04-18T16:46:18.694Z,56.77
2023-04-18T16:48:56.074Z,57.53
2023-04-18T16:51:36.144Z,57.58
2023-04-18T16:54:10.651Z,57.75
2023-04-18T16:56:44.994Z,57.90
2023-04-18T16:59:15.600Z,59.59
2023-04-18T17:01:48.102Z,60.72
2023-04-18T17:04:19.006Z,60.75
2023-04-18T17:06:55.314Z,60.21
2023-04-18T17:09:24.977Z,60.19
2023-04-18T17:11:57.173Z,59.78
2023-04-18T17:14:31.254Z,61.09
2023-04-18T17:17:07.481Z,60.55
2023-04-18T17:19:47.494Z,61.36
2023-04-18T17:22:18.952Z,62.73
2023-04-18T17:24:50.690Z,62.56
2023-04-18T17:27:22.649Z,63.53
2023-04-18T17:30:01.410Z,62.32
2023-04-18T17:32:42.762Z,63.50
2023-04-18T17:35:17.302Z,64.22
2023-04-18T17:37:46.404Z,63.99
2023-04-18T17:40:24.599Z,63.85
2023-04-18T17:42:53.964Z,65.30
2023-04-18T17:45:27.897Z,65.84
2023-04-18T17:48:04.546Z,67.25
2023-04-18T17:50:55.121Z,66.39
2023-04-18T17:53:31.492Z,66.18
2023-04-18T17:56:04.340Z,66.94
2023-04-18T17:58:55.306Z,67.31
2023-04-18T18:01:26.609Z,66.55
2023-04-18T18:04:03.031Z,68.92
2023-04-18T18:06:58.340Z,69.52
2023-04-18T18:09:37.585Z,70.39
2023-04-18T18:12:30.091Z,73.29
2023-04-18T18:15:07.737Z,74.61
2023-04-18T18:18:02.784Z,72.70
2023-04-18T18:20:39.653Z,75.12
2023-04-18T18:23:13.686Z,73.91
2023-04-18T18:25:57.414Z,72.21
2023-04-18T18:28:31.791Z,74.44
2023-04-18T18:31:02.906Z,75.91
2023-04-18T18:33:35.308Z,74.36
2023-04-18T18:36:07.962Z,77.68
2023-04-18T18:38:37.837Z,79.01
2023-04-18T18:41:12.259Z,79.02
2023-04-18T18:43:44.413Z,79.80
2023-04-18T18:46:19.176Z,81.21
2023-04-18T18:48:53.475Z,79.06
2023-04-18T18:51:24.232Z,77.70
2023-04-18T18:54:21.644Z,79.30
2023-04-18T18:56:52.289Z,80.36
2023-04-18T18:59:23.565Z,80.53
2023-04-18T19:01:53.218Z,80.48
2023-04-18T19:04:29.238Z,81.06
2023-04-18T19:07:01.270Z,82.00
2023-04-18T19:09:37.173Z,82.50
2023-04-18T19:12:10.316Z,83.95
2023-04-18T19:14:48.423Z,84.84
2023-04-18T19:17:22.287Z,87.18
2023-04-18T19:19:58.282Z,85.09
2023-04-18T19:22:29.448Z,85.37
2023-04-18T19:25:00.830Z,83.04
2023-04-18T19:27:36.234Z,85.86
2023-04-18T19:30:05.942Z,88.54
2023-04-18T19:32:35.149Z,88.64
2023-04-18T19:35:14.060Z,87.65
2023-04-18T19:37:45.208Z,89.20
2023-04-18T19:40:16.462Z,88.68
2023-04-18T19:42:54.143Z,85.73
2023-04-18T19:45:28.375Z,86.16
2023-04-18T19:48:00.662Z,85.22
2023-04-18T19:50:30.967Z,84.79
2023-04-18T19:53:02.906Z,84.36
2023-04-18T19:55:32.541Z,84.08
2023-04-18T19:58:02.092Z,84.39
2023-04-18T20:00:35.755Z,83.86
2023-04-18T20:03:17.430Z,83.84
2023-04-18T20:05:47.191Z,84.46
2023-04-18T20:08:18.847Z,82.40
2023-04-18T20:10:48.323Z,83.66
2023-04-18T20:13:20.316Z,82.63
2023-04-18T20:15:57.145Z,84.43
2023-04-18T20:18:29.574Z,87.19
2023-04-18T20:20:59.292Z,86.61
2023-04-18T20:23:30.375Z,88.35
2023-04-18T20:26:04.646Z,90.79
2023-04-18T20:28:39.075Z,87.35
2023-04-18T20:31:12.590Z,84.91
2023-04-18T20:33:42.240Z,84.58
2023-04-18T20:36:18.097Z,86.85
2023-04-18T20:38:52.006Z,84.67
2023-04-18T20:41:27.070Z,84.28
2023-04-18T20:44:00.222Z,84.44
2023-04-18T20:46:31.309Z,82.59
2023-04-18T20:49:06.197Z,84.35
2023-04-18T20:51:38.477Z,85.91
2023-04-18T20:54:28.054Z,83.10
2023-04-18T20:57:19.263Z,80.53
2023-04-18T20:59:51.148Z,82.81
2023-04-18T21:02:29.206Z,84.10
2023-04-18T21:04:56.968Z,86.23
2023-04-18T21:07:25.905Z,84.93
2023-04-18T21:09:54.977Z,86.97
2023-04-18T21:12:22.698Z,85.62
2023-04-18T21:14:50.462Z,86.45
2023-04-18T21:17:18.926Z,86.39
2023-04-18T21:19:46.722Z,84.20
2023-04-18T21:22:14.953Z,84.40
2023-04-18T21:24:42.988Z,84.72
2023-04-18T21:27:12.112Z,84.56
2023-04-18T21:29:40.057Z,85.18
2023-04-18T21:32:07.766Z,84.79
2023-04-18T21:34:35.572Z,87.18
2023-04-18T21:37:03.679Z,90.13
2023-04-18T21:39:31.464Z,88.34
2023-04-18T21:41:59.204Z,85.80
2023-04-18T21:44:28.388Z,85.10
2023-04-18T21:46:57.438Z,86.81
2023-04-18T21:49:25.594Z,88.55
2023-04-18T21:51:54.789Z,85.53
2023-04-18T21:54:22.538Z,84.23
2023-04-18T21:56:50.349Z,84.92
2023-04-18T21:59:18.035Z,84.62
2023-04-18T22:01:47.094Z,82.86
2023-04-18T22:04:15.968Z,83.49
2023-04-18T22:06:44.064Z,83.75
2023-04-18T22:09:12.729Z,83.48
2023-04-18T22:11:40.762Z,83.42
2023-04-18T22:14:09.864Z,82.79
2023-04-18T22:16:38.052Z,82.67
2023-04-18T22:19:08.976Z,85.23
2023-04-18T22:21:36.987Z,84.82
2023-04-18T22:24:05.252Z,85.71
2023-04-18T22:26:33.061Z,88.36
2023-04-18T22:29:00.852Z,87.75
2023-04-18T22:31:28.755Z,86.15
2023-04-18T22:33:56.557Z,85.80
2023-04-18T22:36:27.552Z,87.34
2023-04-18T22:38:55.308Z,85.10
2023-04-18T22:41:23.098Z,85.82
2023-04-18T22:43:50.878Z,85.72
2023-04-18T22:46:18.694Z,84.31
2023-04-18T22:48:46.759Z,86.05
2023-04-18T22:51:15.118Z,86.59
2023-04-18T22:53:44.128Z,87.52
2023-04-18T22:56:11.929Z,86.50
2023-04-18T22:58:39.770Z,87.03
2023-04-18T23:01:07.621Z,85.55
2023-04-18T23:03:35.492Z,85.91
2023-04-18T23:06:03.477Z,85.53
2023-04-18T23:08:31.535Z,85.14
2023-04-18T23:11:00.622Z,85.90
2023-04-18T23:13:28.300Z,87.69
2023-04-18T23:15:56.067Z,88.38
2023-04-18T23:18:23.882Z,90.22
2023-04-18T23:20:51.659Z,89.92
2023-04-18T23:23:19.321Z,89.49
2023-04-18T23:25:47.053Z,90.19
2023-04-18T23:28:17.122Z,91.92
2023-04-18T23:30:45.038Z,92.50
2023-04-18T23:33:13.271Z,92.09
2023-04-18T23:35:41.001Z,91.08
2023-04-18T23:38:08.792Z,90.94
2023-04-18T23:40:36.590Z,92.38
2023-04-18T23:43:04.275Z,91.44
2023-04-18T23:45:33.439Z,91.22
2023-04-18T23:48:01.297Z,92.61
2023-04-18T23:50:29.076Z,93.42
2023-04-18T23:52:56.895Z,92.64
2023-04-18T23:55:24.719Z,92.63
2023-04-18T23:57:52.496Z,92.26
